createdAt,value
2022-12-28T00:01:25.439Z,100473.61
2022-12-28T00:04:00.161Z,100466.36
2022-12-28T00:06:38.536Z,100470.66
2022-12-28T00:09:18.519Z,100466.35
2022-12-28T00:11:58.698Z,100459.25
2022-12-28T00:14:29.898Z,100453.38
2022-12-28T00:17:01.807Z,100447.85
2022-12-28T00:19:35.074Z,100442.16
2022-12-28T00:22:09.458Z,100435.08
2022-12-28T00:24:41.258Z,100430.94
2022-12-28T00:27:31.791Z,100429.37
2022-12-28T00:30:14.012Z,100426.44
2022-12-28T00:33:00.490Z,100425.40
2022-12-28T00:35:41.775Z,100426.95
2022-12-28T00:38:31.533Z,100429.54
2022-12-28T00:41:11.854Z,100434.55
2022-12-28T00:43:44.495Z,100433.67
2022-12-28T00:46:28.644Z,100428.82
2022-12-28T00:49:05.845Z,100419.33
2022-12-28T00:51:37.157Z,100420.69
2022-12-28T00:54:09.041Z,100417.08
2022-12-28T00:56:52.892Z,100417.77
2022-12-28T00:59:33.793Z,100415.17
2022-12-28T01:02:07.682Z,100408.95
2022-12-28T01:04:36.561Z,100406.91
2022-12-28T01:07:06.340Z,100408.13
2022-12-28T01:09:44.846Z,100404.34
2022-12-28T01:12:17.548Z,100400.04
2022-12-28T01:15:07.789Z,100396.08
2022-12-28T01:17:42.323Z,100392.44
2022-12-28T01:20:11.863Z,100396.77
2022-12-28T01:22:43.891Z,100391.06
2022-12-28T01:25:16.996Z,100385.87
2022-12-28T01:27:50.078Z,100382.95
2022-12-28T01:30:25.947Z,100376.89
2022-12-28T01:33:01.562Z,100374.83
2022-12-28T01:35:35.186Z,100374.13
2022-12-28T01:38:04.022Z,100369.13
2022-12-28T01:40:35.046Z,100364.98
2022-12-28T01:43:29.439Z,100361.88
2022-12-28T01:45:58.811Z,100361.36
2022-12-28T01:48:31.788Z,100361.05
2022-12-28T01:51:06.435Z,100357.77
2022-12-28T01:53:42.720Z,100349.64
2022-12-28T01:56:24.176Z,100346.02
2022-12-28T01:58:53.911Z,100350.34
2022-12-28T02:01:36.435Z,100340.66
2022-12-28T02:04:05.828Z,100333.74
2022-12-28T02:06:43.907Z,100328.05
2022-12-28T02:09:22.806Z,100324.77
2022-12-28T02:11:52.420Z,100330.47
2022-12-28T02:14:23.574Z,100330.64
2022-12-28T02:16:56.385Z,100327.02
2022-12-28T02:19:49.350Z,100319.59
2022-12-28T02:22:40.967Z,100306.83
2022-12-28T02:25:36.304Z,100299.06
2022-12-28T02:28:51.840Z,100297.65
2022-12-28T02:31:50.647Z,100296.98
2022-12-28T02:35:03.751Z,100295.94
2022-12-28T02:37:50.514Z,100289.72
2022-12-28T02:40:48.864Z,100285.92
2022-12-28T02:43:21.181Z,100284.02
2022-12-28T02:46:12.303Z,100279.02
2022-12-28T02:49:06.647Z,100266.08
2022-12-28T02:51:38.486Z,100261.60
2022-12-28T02:55:02.734Z,100256.73
2022-12-28T02:58:26.777Z,100256.23
2022-12-28T03:01:11.527Z,100255.02
2022-12-28T03:03:52.956Z,100254.34
2022-12-28T03:06:47.792Z,100249.86
2022-12-28T03:09:36.267Z,100245.54
2022-12-28T03:12:20.085Z,100244.50
2022-12-28T03:15:34.694Z,100246.40
2022-12-28T03:18:42.163Z,100245.19
2022-12-28T03:21:35.165Z,100243.29
2022-12-28T03:24:24.763Z,100238.27
2022-12-28T03:27:17.132Z,100232.25
2022-12-28T03:30:14.918Z,100229.30
2022-12-28T03:32:49.736Z,100227.23
2022-12-28T03:35:25.329Z,100221.36
2022-12-28T03:38:11.977Z,100219.64
2022-12-28T03:41:06.544Z,100211.69
2022-12-28T03:44:03.870Z,100211.86
2022-12-28T03:47:06.178Z,100210.13
2022-12-28T03:49:42.003Z,100205.64
2022-12-28T03:52:40.061Z,100197.70
2022-12-28T03:55:49.769Z,100190.09
2022-12-28T03:58:25.150Z,100184.73
2022-12-28T04:01:12.014Z,100185.44
2022-12-28T04:03:47.079Z,100179.03
2022-12-28T04:06:20.618Z,100175.05
2022-12-28T04:08:49.881Z,100175.40
2022-12-28T04:11:31.002Z,100170.06
2022-12-28T04:14:10.946Z,100162.98
2022-12-28T04:16:40.686Z,100157.78
2022-12-28T04:19:24.800Z,100147.08
2022-12-28T04:22:00.075Z,100141.20
2022-12-28T04:24:48.033Z,100137.73
2022-12-28T04:27:22.281Z,100130.31
2022-12-28T04:29:56.258Z,100125.64
2022-12-28T04:32:28.280Z,100115.98
2022-12-28T04:35:20.388Z,100113.73
2022-12-28T04:37:51.366Z,100108.02
2022-12-28T04:40:23.114Z,100107.16
2022-12-28T04:43:01.456Z,100109.91
2022-12-28T04:45:40.492Z,100109.05
2022-12-28T04:48:14.491Z,100107.16
2022-12-28T04:50:51.315Z,100107.48
2022-12-28T04:53:28.223Z,100105.95
2022-12-28T04:56:08.089Z,100105.42
2022-12-28T04:58:40.889Z,100104.05
2022-12-28T05:01:25.584Z,100096.27
2022-12-28T05:04:08.234Z,100086.94
2022-12-28T05:07:01.202Z,100090.05
2022-12-28T05:09:40.106Z,100091.61
2022-12-28T05:12:22.848Z,100091.63
2022-12-28T05:14:57.344Z,100091.61
2022-12-28T05:17:29.944Z,100083.66
2022-12-28T05:20:04.267Z,100079.34
2022-12-28T05:22:41.570Z,100072.95
2022-12-28T05:25:22.080Z,100070.87
2022-12-28T05:28:04.630Z,100066.22
2022-12-28T05:30:56.565Z,100060.51
2022-12-28T05:33:40.516Z,100058.95
2022-12-28T05:36:15.683Z,100051.34
2022-12-28T05:38:59.922Z,100051.70
2022-12-28T05:41:48.230Z,100050.13
2022-12-28T05:44:20.039Z,100050.13
2022-12-28T05:47:02.137Z,100046.33
2022-12-28T05:49:42.826Z,100046.84
2022-12-28T05:52:19.031Z,100043.55
2022-12-28T05:54:49.090Z,100044.92
2022-12-28T05:57:33.321Z,100039.22
2022-12-28T06:00:13.577Z,100039.90
2022-12-28T06:02:52.894Z,100035.23
2022-12-28T06:05:44.066Z,100029.00
2022-12-28T06:08:22.857Z,100026.38
2022-12-28T06:11:10.786Z,100015.66
2022-12-28T06:13:58.032Z,100017.21
2022-12-28T06:16:53.008Z,100013.06
2022-12-28T06:19:30.313Z,100016.17
2022-12-28T06:22:05.114Z,100015.64
2022-12-28T06:24:45.222Z,100011.48
2022-12-28T06:27:26.504Z,100012.88
2022-12-28T06:30:17.460Z,100006.98
2022-12-28T06:32:48.897Z,99998.51
2022-12-28T06:35:22.750Z,99997.10
2022-12-28T06:38:02.638Z,99993.80
2022-12-28T06:41:11.747Z,99992.56
2022-12-28T06:43:38.950Z,99998.09
2022-12-28T06:46:30.714Z,99996.35
2022-12-28T06:49:00.276Z,99998.42
2022-12-28T06:51:39.816Z,99999.79
2022-12-28T06:54:10.447Z,99994.25
2022-12-28T06:56:45.967Z,99993.72
2022-12-28T06:59:25.957Z,99987.65
2022-12-28T07:02:02.181Z,99981.40
2022-12-28T07:04:32.243Z,99980.67
2022-12-28T07:07:03.967Z,99977.02
2022-12-28T07:09:32.660Z,99981.45
2022-12-28T07:12:03.623Z,99979.16
2022-12-28T07:14:33.314Z,99976.18
2022-12-28T07:17:01.742Z,99972.34
2022-12-28T07:19:30.235Z,99972.33
2022-12-28T07:21:59.170Z,99967.11
2022-12-28T07:24:27.480Z,99964.15
2022-12-28T07:26:55.761Z,99964.47
2022-12-28T07:29:24.088Z,99964.63
2022-12-28T07:31:52.424Z,99958.89
2022-12-28T07:34:20.714Z,99955.08
2022-12-28T07:36:49.105Z,99954.88
2022-12-28T07:39:17.302Z,99956.58
2022-12-28T07:41:45.638Z,99960.88
2022-12-28T07:44:13.841Z,99958.27
2022-12-28T07:46:42.230Z,99952.02
2022-12-28T07:49:10.539Z,99952.86
2022-12-28T07:51:39.731Z,99953.90
2022-12-28T07:54:08.040Z,99941.44
2022-12-28T07:59:05.773Z,99938.98
2022-12-28T08:01:36.779Z,99930.33
2022-12-28T08:04:12.567Z,99931.33
2022-12-28T08:06:42.901Z,99932.85
2022-12-28T08:09:16.335Z,99930.05
2022-12-28T08:11:46.158Z,99925.54
2022-12-28T08:14:14.649Z,99924.14
2022-12-28T08:16:44.596Z,99916.14
2022-12-28T08:19:15.541Z,99913.52
2022-12-28T08:21:46.471Z,99906.55
2022-12-28T08:24:19.923Z,99899.23
2022-12-28T08:26:49.973Z,99891.91
2022-12-28T08:29:21.883Z,99891.70
2022-12-28T08:31:50.554Z,99884.52
2022-12-28T08:34:27.454Z,99885.48
2022-12-28T08:36:57.018Z,99886.45
2022-12-28T08:39:25.330Z,99881.87
2022-12-28T08:41:53.741Z,99885.73
2022-12-28T08:44:22.629Z,99884.41
2022-12-28T08:46:54.836Z,99883.91
2022-12-28T08:49:23.254Z,99885.19
2022-12-28T08:51:51.406Z,99882.31
2022-12-28T08:54:20.534Z,99888.08
2022-12-28T08:56:50.158Z,99881.39
2022-12-28T08:59:19.962Z,99875.58
2022-12-28T09:01:49.233Z,99870.36
2022-12-28T09:04:22.207Z,99872.77
2022-12-28T09:06:51.522Z,99865.80
2022-12-28T09:09:21.237Z,99861.45
2022-12-28T09:11:50.130Z,99864.68
2022-12-28T09:14:23.678Z,99865.67
2022-12-28T09:16:56.908Z,99863.86
2022-12-28T09:19:25.627Z,99859.11
2022-12-28T09:21:56.777Z,99852.45
2022-12-28T09:24:25.406Z,99855.33
2022-12-28T09:26:55.645Z,99850.02
2022-12-28T09:29:24.067Z,99841.48
2022-12-28T09:31:52.395Z,99840.05
2022-12-28T09:34:35.410Z,99835.33
2022-12-28T09:37:06.431Z,99831.45
2022-12-28T09:39:34.950Z,99827.92
2022-12-28T09:42:11.336Z,99820.94
2022-12-28T09:44:56.081Z,99814.52
2022-12-28T09:47:27.432Z,99814.88
2022-12-28T09:50:08.166Z,99805.02
2022-12-28T09:53:03.883Z,99807.26
2022-12-28T09:55:35.310Z,99801.38
2022-12-28T09:58:05.789Z,99791.68
2022-12-28T10:00:37.317Z,99784.22
2022-12-28T10:03:52.700Z,99777.98
2022-12-28T10:06:35.650Z,99774.70
2022-12-28T10:09:12.410Z,99769.52
2022-12-28T10:11:44.070Z,99763.10
2022-12-28T10:14:35.909Z,99754.71
2022-12-28T10:17:06.571Z,99755.86
2022-12-28T10:19:35.398Z,99758.35
2022-12-28T10:22:07.614Z,99753.75
2022-12-28T10:24:37.107Z,99753.34
2022-12-28T10:27:07.364Z,99746.14
2022-12-28T10:29:35.836Z,99740.70
2022-12-28T10:32:11.629Z,99733.53
2022-12-28T10:34:55.228Z,99728.76
2022-12-28T10:37:25.952Z,99728.45
2022-12-28T10:40:02.373Z,99724.52
2022-12-28T10:42:44.270Z,99719.00
2022-12-28T10:45:34.513Z,99710.18
2022-12-28T10:48:14.862Z,99706.07
2022-12-28T10:50:49.303Z,99702.10
2022-12-28T10:53:39.415Z,99696.02
2022-12-28T10:56:32.703Z,99695.87
2022-12-28T10:59:10.788Z,99687.73
2022-12-28T11:01:41.427Z,99686.90
2022-12-28T11:04:22.209Z,99685.44
2022-12-28T11:06:55.713Z,99673.27
2022-12-28T11:09:38.098Z,99671.95
2022-12-28T11:12:17.749Z,99674.75
2022-12-28T11:14:46.601Z,99675.76
2022-12-28T11:17:17.929Z,99671.03
2022-12-28T11:19:47.236Z,99669.39
2022-12-28T11:22:21.854Z,99666.83
2022-12-28T11:24:50.417Z,99655.29
2022-12-28T11:27:21.993Z,99643.11
2022-12-28T11:29:53.385Z,99643.59
2022-12-28T11:32:30.867Z,99643.25
2022-12-28T11:35:00.526Z,99637.63
2022-12-28T11:37:28.969Z,99635.56
2022-12-28T11:39:59.073Z,99636.80
2022-12-28T11:42:39.505Z,99633.68
2022-12-28T11:45:36.404Z,99637.82
2022-12-28T11:48:47.319Z,99639.60
2022-12-28T11:51:21.895Z,99641.30
2022-12-28T11:54:23.098Z,99637.23
2022-12-28T11:56:51.427Z,99629.67
2022-12-28T11:59:27.495Z,99629.96
2022-12-28T12:02:18.787Z,99623.81
2022-12-28T12:04:47.218Z,99621.51
2022-12-28T12:07:20.384Z,99620.80
2022-12-28T12:10:16.164Z,99620.79
2022-12-28T12:12:51.226Z,99614.75
2022-12-28T12:15:25.843Z,99608.50
2022-12-28T12:18:03.966Z,99608.13
2022-12-28T12:21:02.951Z,99606.42
2022-12-28T12:23:41.099Z,99603.88
2022-12-28T12:26:34.108Z,99603.23
2022-12-28T12:29:13.861Z,99600.34
2022-12-28T12:32:15.581Z,99597.23
2022-12-28T12:34:51.856Z,99594.66
2022-12-28T12:37:36.240Z,99594.55
2022-12-28T12:40:10.291Z,99592.02
2022-12-28T12:42:55.763Z,99590.01
2022-12-28T12:45:43.222Z,99592.20
2022-12-28T12:48:19.440Z,99592.27
2022-12-28T12:51:06.720Z,99592.40
2022-12-28T12:53:48.514Z,99590.50
2022-12-28T12:56:29.897Z,99588.92
2022-12-28T12:59:06.805Z,99587.59
2022-12-28T13:01:54.285Z,99586.08
2022-12-28T13:04:26.848Z,99579.64
2022-12-28T13:07:05.972Z,99574.61
2022-12-28T13:09:37.555Z,99576.00
2022-12-28T13:12:15.862Z,99572.85
2022-12-28T13:14:47.221Z,99575.00
2022-12-28T13:17:19.920Z,99567.61
2022-12-28T13:19:48.654Z,99564.75
2022-12-28T13:22:32.467Z,99564.32
2022-12-28T13:25:00.672Z,99561.08
2022-12-28T13:27:38.083Z,99561.14
2022-12-28T13:30:18.162Z,99553.04
2022-12-28T13:32:52.473Z,99557.79
2022-12-28T13:35:27.199Z,99551.55
2022-12-28T13:38:16.609Z,99555.74
2022-12-28T13:40:53.605Z,99545.48
2022-12-28T13:43:49.990Z,99542.52
2022-12-28T13:46:21.173Z,99547.16
2022-12-28T13:48:52.822Z,99546.10
2022-12-28T13:51:22.577Z,99548.79
2022-12-28T13:53:57.661Z,99545.95
2022-12-28T13:56:28.336Z,99550.70
2022-12-28T13:59:01.762Z,99548.52
2022-12-28T14:01:36.138Z,99546.56
2022-12-28T14:04:50.401Z,99547.02
2022-12-28T14:06:56.897Z,99548.36
2022-12-28T14:09:25.902Z,99544.18
2022-12-28T14:11:58.794Z,99537.60
2022-12-28T14:14:28.626Z,99537.77
2022-12-28T14:16:57.907Z,99533.63
2022-12-28T14:19:26.331Z,99530.70
2022-12-28T14:21:54.729Z,99530.71
2022-12-28T14:24:23.452Z,99534.39
2022-12-28T14:26:59.435Z,99538.92
2022-12-28T14:29:31.611Z,99535.63
2022-12-28T14:32:14.228Z,99538.41
2022-12-28T14:34:42.746Z,99533.23
2022-12-28T14:37:28.402Z,99528.92
2022-12-28T14:40:01.533Z,99529.64
2022-12-28T14:42:31.776Z,99526.73
2022-12-28T14:45:22.304Z,99527.95
2022-12-28T14:47:56.823Z,99526.21
2022-12-28T14:50:29.183Z,99521.00
2022-12-28T14:53:20.231Z,99530.02
2022-12-28T14:56:13.619Z,99530.50
2022-12-28T14:59:00.586Z,99539.73
2022-12-28T15:01:47.683Z,99537.63
2022-12-28T15:04:27.311Z,99533.27
2022-12-28T15:06:55.837Z,99532.05
2022-12-28T15:09:24.374Z,99533.27
2022-12-28T15:12:22.165Z,99540.58
2022-12-28T15:14:50.510Z,99542.61
2022-12-28T15:17:19.417Z,99540.89
2022-12-28T15:19:47.727Z,99548.80
2022-12-28T15:22:17.142Z,99546.90
2022-12-28T15:24:46.650Z,99546.23
2022-12-28T15:27:15.048Z,99544.13
2022-12-28T15:32:34.069Z,99551.16
2022-12-28T15:35:03.605Z,99555.58
2022-12-28T15:37:32.078Z,99554.52
2022-12-28T15:40:00.348Z,99556.63
2022-12-28T15:42:30.054Z,99556.45
2022-12-28T15:44:59.777Z,99549.88
2022-12-28T15:47:28.161Z,99549.89
2022-12-28T15:49:58.302Z,99548.01
2022-12-28T15:52:26.821Z,99551.51
2022-12-28T15:54:55.122Z,99551.88
2022-12-28T15:57:23.477Z,99552.95
2022-12-28T15:59:51.818Z,99550.60
2022-12-28T16:02:20.472Z,99547.72
2022-12-28T16:04:49.510Z,99543.10
2022-12-28T16:07:20.341Z,99542.14
2022-12-28T16:09:49.351Z,99538.07
2022-12-28T16:12:17.789Z,99539.39
2022-12-28T16:14:47.622Z,99535.55
2022-12-28T16:17:16.398Z,99535.69
2022-12-28T16:19:44.832Z,99534.19
2022-12-28T16:22:13.295Z,99535.15
2022-12-28T16:24:41.544Z,99528.98
2022-12-28T16:27:10.377Z,99529.08
2022-12-28T16:29:39.292Z,99532.64
2022-12-28T16:32:07.694Z,99530.98
2022-12-28T16:34:36.235Z,99537.95
2022-12-28T16:37:04.691Z,99533.45
2022-12-28T16:39:33.166Z,99529.67
2022-12-28T16:42:01.749Z,99530.74
2022-12-28T16:44:31.427Z,99532.16
2022-12-28T16:47:00.334Z,99533.72
2022-12-28T16:49:31.672Z,99528.34
2022-12-28T16:52:00.301Z,99526.77
2022-12-28T16:54:29.257Z,99529.72
2022-12-28T16:56:58.978Z,99526.06
2022-12-28T16:59:28.940Z,99527.08
2022-12-28T17:01:57.953Z,99522.70
2022-12-28T17:04:26.578Z,99531.70
2022-12-28T17:06:56.051Z,99533.54
2022-12-28T17:09:24.608Z,99531.89
2022-12-28T17:11:55.070Z,99530.92
2022-12-28T17:14:37.394Z,99525.14
2022-12-28T17:17:07.979Z,99523.44
2022-12-28T17:19:36.748Z,99521.10
2022-12-28T17:22:06.405Z,99521.38
2022-12-28T17:24:35.030Z,99519.23
2022-12-28T17:27:07.704Z,99520.72
2022-12-28T17:29:38.195Z,99522.14
2022-12-28T17:32:07.762Z,99522.38
2022-12-28T17:34:36.872Z,99516.09
2022-12-28T17:37:05.859Z,99512.27
2022-12-28T17:39:40.227Z,99513.44
2022-12-28T17:42:09.657Z,99513.61
2022-12-28T17:44:38.757Z,99505.27
2022-12-28T17:47:07.258Z,99502.80
2022-12-28T17:49:35.894Z,99505.38
2022-12-28T17:52:04.507Z,99498.77
2022-12-28T17:54:33.839Z,99499.02
2022-12-28T17:57:02.463Z,99494.72
2022-12-28T17:59:30.881Z,99494.18
2022-12-28T18:02:02.115Z,99490.51
2022-12-28T18:04:31.451Z,99491.89
2022-12-28T18:07:00.081Z,99491.70
2022-12-28T18:09:29.485Z,99491.00
2022-12-28T18:11:58.537Z,99493.45
2022-12-28T18:14:27.837Z,99495.70
2022-12-28T18:16:56.330Z,99494.13
2022-12-28T18:19:24.725Z,99490.93
2022-12-28T18:21:53.565Z,99489.63
2022-12-28T18:24:22.691Z,99490.45
2022-12-28T18:26:51.576Z,99492.20
2022-12-28T18:29:20.387Z,99489.40
2022-12-28T18:31:48.888Z,99490.02
2022-12-28T18:34:17.487Z,99487.81
2022-12-28T18:36:45.967Z,99484.61
2022-12-28T18:39:16.040Z,99482.84
2022-12-28T18:41:48.545Z,99480.66
2022-12-28T18:44:28.124Z,99480.98
2022-12-28T18:47:01.847Z,99475.39
2022-12-28T18:49:33.480Z,99472.89
2022-12-28T18:52:12.927Z,99467.77
2022-12-28T18:54:43.859Z,99470.66
2022-12-28T18:57:14.742Z,99464.35
2022-12-28T18:59:43.017Z,99463.27
2022-12-28T19:02:16.063Z,99465.46
2022-12-28T19:04:48.246Z,99462.70
2022-12-28T19:07:16.721Z,99462.45
2022-12-28T19:10:11.993Z,99459.39
2022-12-28T19:12:45.275Z,99464.25
2022-12-28T19:15:16.936Z,99466.09
2022-12-28T19:17:45.452Z,99468.14
2022-12-28T19:20:14.077Z,99468.05
2022-12-28T19:22:43.211Z,99464.00
2022-12-28T19:25:11.630Z,99461.73
2022-12-28T19:27:43.950Z,99461.16
2022-12-28T19:30:12.897Z,99458.48
2022-12-28T19:32:41.471Z,99458.05
2022-12-28T19:35:10.273Z,99452.77
2022-12-28T19:37:39.587Z,99450.15
2022-12-28T19:40:08.942Z,99448.94
2022-12-28T19:42:43.286Z,99447.36
2022-12-28T19:45:12.167Z,99448.36
2022-12-28T19:47:41.114Z,99446.22
2022-12-28T19:50:09.585Z,99443.42
2022-12-28T19:52:39.052Z,99440.70
2022-12-28T19:55:10.121Z,99434.34
2022-12-28T19:57:39.232Z,99432.64
2022-12-28T20:00:09.154Z,99431.23
2022-12-28T20:02:37.618Z,99436.48
2022-12-28T20:05:07.244Z,99434.06
2022-12-28T20:07:39.760Z,99429.89
2022-12-28T20:10:08.798Z,99427.73
2022-12-28T20:12:37.263Z,99429.20
2022-12-28T20:15:06.457Z,99430.72
2022-12-28T20:17:35.684Z,99425.31
2022-12-28T20:20:06.910Z,99422.50
2022-12-28T20:22:40.883Z,99419.50
2022-12-28T20:25:10.988Z,99410.45
2022-12-28T20:27:42.735Z,99411.73
2022-12-28T20:30:11.849Z,99410.64
2022-12-28T20:32:44.760Z,99408.34
2022-12-28T20:35:13.900Z,99411.84
2022-12-28T20:37:42.376Z,99408.16
2022-12-28T20:40:11.265Z,99410.23
2022-12-28T20:42:58.956Z,99410.38
2022-12-28T20:45:27.444Z,99407.98
2022-12-28T20:47:56.012Z,99405.48
2022-12-28T20:50:31.638Z,99407.30
2022-12-28T20:53:03.386Z,99408.08
2022-12-28T20:55:31.994Z,99407.20
2022-12-28T20:58:01.533Z,99408.57
2022-12-28T21:00:29.943Z,99401.85
2022-12-28T21:02:59.181Z,99401.39
2022-12-28T21:05:28.259Z,99400.92
2022-12-28T21:07:56.894Z,99397.45
2022-12-28T21:10:25.243Z,99397.00
2022-12-28T21:12:54.362Z,99392.48
2022-12-28T21:15:23.407Z,99386.85
2022-12-28T21:17:52.378Z,99386.20
2022-12-28T21:20:24.060Z,99388.59
2022-12-28T21:22:54.730Z,99386.91
2022-12-28T21:25:23.611Z,99383.81
2022-12-28T21:27:52.651Z,99387.71
2022-12-28T21:30:21.062Z,99390.94
2022-12-28T21:32:49.949Z,99389.16
2022-12-28T21:35:18.456Z,99391.21
2022-12-28T21:37:46.934Z,99390.47
2022-12-28T21:40:15.436Z,99392.54
2022-12-28T21:42:44.060Z,99388.81
2022-12-28T21:45:12.785Z,99387.36
2022-12-28T21:47:41.663Z,99384.32
2022-12-28T21:50:11.208Z,99376.27
2022-12-28T21:52:40.082Z,99368.44
2022-12-28T21:55:27.709Z,99364.73
2022-12-28T21:57:57.794Z,99369.21
2022-12-28T22:00:46.653Z,99373.34
2022-12-28T22:03:33.731Z,99361.97
2022-12-28T22:06:06.847Z,99352.98
2022-12-28T22:08:54.321Z,99341.53
2022-12-28T22:11:41.638Z,99329.78
2022-12-28T22:14:10.126Z,99330.38
2022-12-28T22:16:38.971Z,99325.54
2022-12-28T22:19:07.428Z,99317.72
2022-12-28T22:21:36.975Z,99311.63
2022-12-28T22:24:06.094Z,99308.29
2022-12-28T22:26:34.541Z,99305.52
2022-12-28T22:29:03.991Z,99293.68
2022-12-28T22:31:33.692Z,99278.91
2022-12-28T22:34:07.084Z,99270.85
2022-12-28T22:36:36.158Z,99264.73
2022-12-28T22:39:04.660Z,99262.28
2022-12-28T22:41:33.107Z,99263.44
2022-12-28T22:44:01.627Z,99261.98
2022-12-28T22:46:32.169Z,99262.05
2022-12-28T22:49:01.175Z,99266.80
2022-12-28T22:51:29.605Z,99267.38
2022-12-28T22:53:57.975Z,99264.45
2022-12-28T22:56:26.335Z,99256.41
2022-12-28T22:58:54.688Z,99248.36
2022-12-28T23:01:23.471Z,99243.30
2022-12-28T23:03:56.110Z,99242.14
2022-12-28T23:10:34.763Z,99236.88
2022-12-28T23:14:08.341Z,99223.23
2022-12-28T23:21:07.650Z,99211.35
2022-12-28T23:24:41.888Z,99211.33
2022-12-28T23:28:02.630Z,99202.66
2022-12-28T23:31:14.019Z,99197.14
2022-12-28T23:37:06.708Z,99186.45
2022-12-28T23:39:51.682Z,99178.61
2022-12-28T23:42:34.784Z,99179.80
2022-12-28T23:45:28.513Z,99168.65
2022-12-28T23:48:19.073Z,99162.95
2022-12-28T23:51:08.723Z,99160.48
2022-12-28T23:53:38.099Z,99162.02
2022-12-28T23:56:25.074Z,99159.70
2022-12-28T23:59:26.137Z,99159.22
